sensor_id;sensor_type;location;lat;lon;timestamp;P1;durP1;ratioP1;P2;durP2;ratioP2
55710;SDS011;41612;51.994;5.880;2024-02-04T00:01:32;15.05;;;10.98;;
55710;SDS011;41612;51.994;5.880;2024-02-04T00:04:01;13.27;;;9.55;;
55710;SDS011;41612;51.994;5.880;2024-02-04T00:06:29;12.77;;;9.23;;
55710;SDS011;41612;51.994;5.880;2024-02-04T00:08:55;11.43;;;9.20;;
55710;SDS011;41612;51.994;5.880;2024-02-04T00:11:22;15.02;;;10.70;;
55710;SDS011;41612;51.994;5.880;2024-02-04T00:13:53;11.45;;;8.98;;
55710;SDS011;41612;51.994;5.880;2024-02-04T00:16:19;11.20;;;9.15;;
55710;SDS011;41612;51.994;5.880;2024-02-04T00:18:44;13.55;;;9.73;;
55710;SDS011;41612;51.994;5.880;2024-02-04T00:21:11;15.27;;;10.52;;
55710;SDS011;41612;51.994;5.880;2024-02-04T00:23:39;14.30;;;11.85;;
55710;SDS011;41612;51.994;5.880;2024-02-04T00:26:05;12.43;;;8.93;;
55710;SDS011;41612;51.994;5.880;2024-02-04T00:28:31;16.40;;;10.65;;
55710;SDS011;41612;51.994;5.880;2024-02-04T00:30:57;12.85;;;9.20;;
55710;SDS011;41612;51.994;5.880;2024-02-04T00:33:24;8.98;;;7.43;;
55710;SDS011;41612;51.994;5.880;2024-02-04T00:35:51;14.93;;;9.25;;
55710;SDS011;41612;51.994;5.880;2024-02-04T00:38:16;10.45;;;6.88;;
55710;SDS011;41612;51.994;5.880;2024-02-04T00:40:42;8.85;;;7.15;;
55710;SDS011;41612;51.994;5.880;2024-02-04T00:43:09;12.98;;;9.38;;
55710;SDS011;41612;51.994;5.880;2024-02-04T00:45:34;12.00;;;7.78;;
55710;SDS011;41612;51.994;5.880;2024-02-04T00:48:00;12.73;;;8.13;;
55710;SDS011;41612;51.994;5.880;2024-02-04T00:50:26;12.15;;;8.00;;
55710;SDS011;41612;51.994;5.880;2024-02-04T00:52:52;10.88;;;7.60;;
55710;SDS011;41612;51.994;5.880;2024-02-04T00:55:19;18.15;;;9.95;;
55710;SDS011;41612;51.994;5.880;2024-02-04T00:57:45;18.98;;;12.43;;
55710;SDS011;41612;51.994;5.880;2024-02-04T01:00:11;20.95;;;13.50;;
55710;SDS011;41612;51.994;5.880;2024-02-04T01:02:40;23.13;;;13.95;;
55710;SDS011;41612;51.994;5.880;2024-02-04T01:05:11;26.88;;;14.70;;
55710;SDS011;41612;51.994;5.880;2024-02-04T01:07:40;33.63;;;17.35;;
55710;SDS011;41612;51.994;5.880;2024-02-04T01:10:08;30.02;;;18.67;;
55710;SDS011;41612;51.994;5.880;2024-02-04T01:12:35;20.10;;;12.88;;
55710;SDS011;41612;51.994;5.880;2024-02-04T01:15:01;20.15;;;12.00;;
55710;SDS011;41612;51.994;5.880;2024-02-04T01:17:31;16.25;;;10.20;;
55710;SDS011;41612;51.994;5.880;2024-02-04T01:19:58;23.08;;;13.70;;
55710;SDS011;41612;51.994;5.880;2024-02-04T01:22:24;20.63;;;12.55;;
55710;SDS011;41612;51.994;5.880;2024-02-04T01:24:52;21.45;;;13.63;;
55710;SDS011;41612;51.994;5.880;2024-02-04T01:27:18;20.15;;;15.13;;
55710;SDS011;41612;51.994;5.880;2024-02-04T01:29:46;14.40;;;9.52;;
55710;SDS011;41612;51.994;5.880;2024-02-04T01:32:12;12.63;;;8.43;;
55710;SDS011;41612;51.994;5.880;2024-02-04T01:34:38;17.55;;;11.65;;
55710;SDS011;41612;51.994;5.880;2024-02-04T01:37:04;21.48;;;14.02;;
55710;SDS011;41612;51.994;5.880;2024-02-04T01:39:30;16.88;;;9.40;;
55710;SDS011;41612;51.994;5.880;2024-02-04T01:41:55;20.45;;;13.73;;
55710;SDS011;41612;51.994;5.880;2024-02-04T01:44:21;23.30;;;16.23;;
55710;SDS011;41612;51.994;5.880;2024-02-04T01:46:48;22.33;;;14.55;;
55710;SDS011;41612;51.994;5.880;2024-02-04T01:49:14;15.23;;;9.45;;
55710;SDS011;41612;51.994;5.880;2024-02-04T01:51:42;19.73;;;11.55;;
55710;SDS011;41612;51.994;5.880;2024-02-04T01:54:08;27.73;;;13.88;;
55710;SDS011;41612;51.994;5.880;2024-02-04T01:56:35;21.52;;;12.15;;
55710;SDS011;41612;51.994;5.880;2024-02-04T01:59:01;16.50;;;11.35;;
55710;SDS011;41612;51.994;5.880;2024-02-04T02:01:27;16.98;;;10.02;;
55710;SDS011;41612;51.994;5.880;2024-02-04T02:03:58;18.83;;;9.07;;
55710;SDS011;41612;51.994;5.880;2024-02-04T02:06:27;21.13;;;13.80;;
55710;SDS011;41612;51.994;5.880;2024-02-04T02:08:53;17.17;;;10.50;;
55710;SDS011;41612;51.994;5.880;2024-02-04T02:11:27;20.15;;;12.20;;
55710;SDS011;41612;51.994;5.880;2024-02-04T02:14:03;16.83;;;11.50;;
55710;SDS011;41612;51.994;5.880;2024-02-04T02:16:32;16.60;;;9.65;;
55710;SDS011;41612;51.994;5.880;2024-02-04T02:19:12;25.45;;;13.35;;
55710;SDS011;41612;51.994;5.880;2024-02-04T02:24:50;19.17;;;9.50;;
55710;SDS011;41612;51.994;5.880;2024-02-04T02:27:17;21.65;;;11.48;;
55710;SDS011;41612;51.994;5.880;2024-02-04T02:29:45;20.60;;;11.55;;
55710;SDS011;41612;51.994;5.880;2024-02-04T02:32:10;14.30;;;9.20;;
55710;SDS011;41612;51.994;5.880;2024-02-04T02:34:38;16.13;;;9.40;;
55710;SDS011;41612;51.994;5.880;2024-02-04T02:40:01;21.60;;;12.05;;
55710;SDS011;41612;51.994;5.880;2024-02-04T02:42:30;24.80;;;11.65;;
55710;SDS011;41612;51.994;5.880;2024-02-04T02:44:57;12.57;;;8.40;;
55710;SDS011;41612;51.994;5.880;2024-02-04T02:47:24;16.15;;;8.35;;
55710;SDS011;41612;51.994;5.880;2024-02-04T02:49:53;12.88;;;6.93;;
55710;SDS011;41612;51.994;5.880;2024-02-04T02:52:22;15.15;;;7.78;;
55710;SDS011;41612;51.994;5.880;2024-02-04T02:54:47;14.98;;;9.18;;
55710;SDS011;41612;51.994;5.880;2024-02-04T02:57:13;9.57;;;6.43;;
55710;SDS011;41612;51.994;5.880;2024-02-04T02:59:39;13.57;;;7.72;;
55710;SDS011;41612;51.994;5.880;2024-02-04T03:02:05;10.77;;;6.68;;
55710;SDS011;41612;51.994;5.880;2024-02-04T03:04:31;16.90;;;9.77;;
55710;SDS011;41612;51.994;5.880;2024-02-04T03:07:01;13.82;;;8.98;;
55710;SDS011;41612;51.994;5.880;2024-02-04T03:09:31;14.57;;;8.43;;
55710;SDS011;41612;51.994;5.880;2024-02-04T03:12:03;17.23;;;9.18;;
55710;SDS011;41612;51.994;5.880;2024-02-04T03:14:32;15.10;;;9.02;;
55710;SDS011;41612;51.994;5.880;2024-02-04T03:17:02;12.55;;;8.00;;
55710;SDS011;41612;51.994;5.880;2024-02-04T03:19:28;13.85;;;8.20;;
55710;SDS011;41612;51.994;5.880;2024-02-04T03:21:54;18.55;;;11.20;;
55710;SDS011;41612;51.994;5.880;2024-02-04T03:24:19;16.75;;;9.63;;
55710;SDS011;41612;51.994;5.880;2024-02-04T03:26:45;9.98;;;6.70;;
55710;SDS011;41612;51.994;5.880;2024-02-04T03:29:14;22.30;;;10.93;;
55710;SDS011;41612;51.994;5.880;2024-02-04T03:31:40;11.88;;;7.68;;
55710;SDS011;41612;51.994;5.880;2024-02-04T03:34:05;19.70;;;10.75;;
55710;SDS011;41612;51.994;5.880;2024-02-04T03:36:31;19.33;;;11.60;;
55710;SDS011;41612;51.994;5.880;2024-02-04T03:39:02;15.93;;;8.85;;
55710;SDS011;41612;51.994;5.880;2024-02-04T03:41:28;12.38;;;7.05;;
55710;SDS011;41612;51.994;5.880;2024-02-04T03:43:57;16.52;;;9.68;;
55710;SDS011;41612;51.994;5.880;2024-02-04T03:46:28;15.80;;;10.30;;
55710;SDS011;41612;51.994;5.880;2024-02-04T03:48:54;14.57;;;9.52;;
55710;SDS011;41612;51.994;5.880;2024-02-04T03:51:23;19.55;;;11.65;;
55710;SDS011;41612;51.994;5.880;2024-02-04T03:53:49;13.75;;;8.32;;
55710;SDS011;41612;51.994;5.880;2024-02-04T03:56:16;17.45;;;8.43;;
55710;SDS011;41612;51.994;5.880;2024-02-04T03:58:44;16.58;;;11.15;;
55710;SDS011;41612;51.994;5.880;2024-02-04T04:01:12;13.32;;;8.30;;
55710;SDS011;41612;51.994;5.880;2024-02-04T04:03:43;11.00;;;6.97;;
55710;SDS011;41612;51.994;5.880;2024-02-04T04:06:09;13.85;;;8.10;;
55710;SDS011;41612;51.994;5.880;2024-02-04T04:08:38;10.98;;;7.45;;
55710;SDS011;41612;51.994;5.880;2024-02-04T04:11:12;14.82;;;7.05;;
55710;SDS011;41612;51.994;5.880;2024-02-04T04:13:38;19.38;;;9.55;;
55710;SDS011;41612;51.994;5.880;2024-02-04T04:16:06;16.90;;;9.43;;
55710;SDS011;41612;51.994;5.880;2024-02-04T04:18:32;18.23;;;10.35;;
55710;SDS011;41612;51.994;5.880;2024-02-04T04:21:03;13.95;;;8.02;;
55710;SDS011;41612;51.994;5.880;2024-02-04T04:23:31;15.13;;;8.43;;
55710;SDS011;41612;51.994;5.880;2024-02-04T04:25:57;15.23;;;9.57;;
55710;SDS011;41612;51.994;5.880;2024-02-04T04:28:22;20.17;;;9.90;;
55710;SDS011;41612;51.994;5.880;2024-02-04T04:30:48;15.95;;;8.23;;
55710;SDS011;41612;51.994;5.880;2024-02-04T04:33:14;23.35;;;10.82;;
55710;SDS011;41612;51.994;5.880;2024-02-04T04:35:40;12.75;;;8.13;;
55710;SDS011;41612;51.994;5.880;2024-02-04T04:38:08;20.23;;;10.77;;
55710;SDS011;41612;51.994;5.880;2024-02-04T04:40:34;17.63;;;10.07;;
55710;SDS011;41612;51.994;5.880;2024-02-04T04:43:00;15.13;;;8.45;;
55710;SDS011;41612;51.994;5.880;2024-02-04T04:45:25;23.38;;;11.18;;
55710;SDS011;41612;51.994;5.880;2024-02-04T04:47:51;20.85;;;11.18;;
55710;SDS011;41612;51.994;5.880;2024-02-04T04:50:17;21.48;;;9.75;;
55710;SDS011;41612;51.994;5.880;2024-02-04T04:52:43;14.27;;;7.30;;
55710;SDS011;41612;51.994;5.880;2024-02-04T04:55:09;21.23;;;11.20;;
55710;SDS011;41612;51.994;5.880;2024-02-04T04:57:35;17.33;;;9.55;;
55710;SDS011;41612;51.994;5.880;2024-02-04T05:00:05;15.00;;;8.80;;
55710;SDS011;41612;51.994;5.880;2024-02-04T05:02:35;24.15;;;12.13;;
55710;SDS011;41612;51.994;5.880;2024-02-04T05:05:01;14.68;;;8.38;;
55710;SDS011;41612;51.994;5.880;2024-02-04T05:07:27;18.67;;;11.10;;
55710;SDS011;41612;51.994;5.880;2024-02-04T05:09:53;20.70;;;10.55;;
55710;SDS011;41612;51.994;5.880;2024-02-04T05:12:21;20.00;;;9.43;;
55710;SDS011;41612;51.994;5.880;2024-02-04T05:14:49;16.40;;;8.20;;
55710;SDS011;41612;51.994;5.880;2024-02-04T05:17:18;13.73;;;8.05;;
55710;SDS011;41612;51.994;5.880;2024-02-04T05:19:43;13.68;;;7.75;;
55710;SDS011;41612;51.994;5.880;2024-02-04T05:22:09;12.65;;;7.13;;
55710;SDS011;41612;51.994;5.880;2024-02-04T05:24:35;16.50;;;7.90;;
55710;SDS011;41612;51.994;5.880;2024-02-04T05:27:01;17.83;;;9.18;;
55710;SDS011;41612;51.994;5.880;2024-02-04T05:29:30;17.85;;;8.93;;
55710;SDS011;41612;51.994;5.880;2024-02-04T05:31:56;8.23;;;5.88;;
55710;SDS011;41612;51.994;5.880;2024-02-04T05:34:22;14.98;;;5.80;;
55710;SDS011;41612;51.994;5.880;2024-02-04T05:36:50;12.05;;;6.20;;
55710;SDS011;41612;51.994;5.880;2024-02-04T05:39:16;11.60;;;6.68;;
55710;SDS011;41612;51.994;5.880;2024-02-04T05:41:42;12.63;;;6.25;;
55710;SDS011;41612;51.994;5.880;2024-02-04T05:44:08;14.65;;;7.35;;
55710;SDS011;41612;51.994;5.880;2024-02-04T05:46:37;16.30;;;8.07;;
55710;SDS011;41612;51.994;5.880;2024-02-04T05:49:04;8.82;;;5.20;;
55710;SDS011;41612;51.994;5.880;2024-02-04T05:51:32;14.45;;;7.65;;
55710;SDS011;41612;51.994;5.880;2024-02-04T05:54:05;9.60;;;6.97;;
55710;SDS011;41612;51.994;5.880;2024-02-04T05:56:32;15.20;;;7.75;;
55710;SDS011;41612;51.994;5.880;2024-02-04T05:58:58;16.83;;;9.18;;
55710;SDS011;41612;51.994;5.880;2024-02-04T06:01:24;14.95;;;8.20;;
55710;SDS011;41612;51.994;5.880;2024-02-04T06:04:01;21.35;;;9.63;;
55710;SDS011;41612;51.994;5.880;2024-02-04T06:06:32;10.00;;;6.80;;
55710;SDS011;41612;51.994;5.880;2024-02-04T06:08:58;15.80;;;8.60;;
55710;SDS011;41612;51.994;5.880;2024-02-04T06:11:23;14.00;;;8.50;;
55710;SDS011;41612;51.994;5.880;2024-02-04T06:13:49;8.75;;;5.82;;
55710;SDS011;41612;51.994;5.880;2024-02-04T06:16:17;15.38;;;7.15;;
55710;SDS011;41612;51.994;5.880;2024-02-04T06:18:43;8.40;;;6.35;;
55710;SDS011;41612;51.994;5.880;2024-02-04T06:21:09;13.77;;;8.80;;
55710;SDS011;41612;51.994;5.880;2024-02-04T06:23:34;12.30;;;7.88;;
55710;SDS011;41612;51.994;5.880;2024-02-04T06:26:00;8.60;;;6.35;;
55710;SDS011;41612;51.994;5.880;2024-02-04T06:28:29;16.88;;;9.23;;
55710;SDS011;41612;51.994;5.880;2024-02-04T06:30:55;21.08;;;10.27;;
55710;SDS011;41612;51.994;5.880;2024-02-04T06:33:24;16.77;;;8.57;;
55710;SDS011;41612;51.994;5.880;2024-02-04T06:35:50;15.80;;;7.55;;
55710;SDS011;41612;51.994;5.880;2024-02-04T06:38:16;15.82;;;7.50;;
55710;SDS011;41612;51.994;5.880;2024-02-04T06:40:42;18.13;;;9.35;;
55710;SDS011;41612;51.994;5.880;2024-02-04T06:43:08;20.92;;;9.63;;
55710;SDS011;41612;51.994;5.880;2024-02-04T06:45:34;16.92;;;9.85;;
55710;SDS011;41612;51.994;5.880;2024-02-04T06:48:00;16.00;;;8.23;;
55710;SDS011;41612;51.994;5.880;2024-02-04T06:50:28;17.38;;;10.00;;
55710;SDS011;41612;51.994;5.880;2024-02-04T06:52:54;19.95;;;10.70;;
55710;SDS011;41612;51.994;5.880;2024-02-04T06:55:20;13.23;;;8.75;;
55710;SDS011;41612;51.994;5.880;2024-02-04T06:57:48;14.88;;;9.48;;
55710;SDS011;41612;51.994;5.880;2024-02-04T07:00:14;24.98;;;15.45;;
55710;SDS011;41612;51.994;5.880;2024-02-04T07:02:40;24.63;;;14.70;;
55710;SDS011;41612;51.994;5.880;2024-02-04T07:05:07;18.02;;;10.77;;
55710;SDS011;41612;51.994;5.880;2024-02-04T07:07:33;16.48;;;11.15;;
55710;SDS011;41612;51.994;5.880;2024-02-04T07:09:59;24.73;;;15.68;;
55710;SDS011;41612;51.994;5.880;2024-02-04T07:12:25;23.17;;;14.02;;
55710;SDS011;41612;51.994;5.880;2024-02-04T07:14:54;29.10;;;16.67;;
55710;SDS011;41612;51.994;5.880;2024-02-04T07:17:23;21.65;;;15.65;;
55710;SDS011;41612;51.994;5.880;2024-02-04T07:19:52;23.42;;;15.45;;
55710;SDS011;41612;51.994;5.880;2024-02-04T07:22:18;18.40;;;13.73;;
55710;SDS011;41612;51.994;5.880;2024-02-04T07:24:44;18.13;;;12.13;;
55710;SDS011;41612;51.994;5.880;2024-02-04T07:27:12;30.40;;;17.90;;
55710;SDS011;41612;51.994;5.880;2024-02-04T07:29:38;32.60;;;21.52;;
55710;SDS011;41612;51.994;5.880;2024-02-04T07:32:04;22.38;;;16.10;;
55710;SDS011;41612;51.994;5.880;2024-02-04T07:34:34;16.95;;;11.98;;
55710;SDS011;41612;51.994;5.880;2024-02-04T07:37:02;22.40;;;14.05;;
55710;SDS011;41612;51.994;5.880;2024-02-04T07:39:28;24.15;;;14.05;;
55710;SDS011;41612;51.994;5.880;2024-02-04T07:41:55;24.63;;;14.75;;
55710;SDS011;41612;51.994;5.880;2024-02-04T07:44:25;20.83;;;10.75;;
55710;SDS011;41612;51.994;5.880;2024-02-04T07:46:57;21.98;;;13.75;;
55710;SDS011;41612;51.994;5.880;2024-02-04T07:49:22;28.05;;;17.45;;
55710;SDS011;41612;51.994;5.880;2024-02-04T07:51:48;34.95;;;20.23;;
55710;SDS011;41612;51.994;5.880;2024-02-04T07:54:14;33.47;;;19.17;;
55710;SDS011;41612;51.994;5.880;2024-02-04T07:56:40;27.38;;;15.88;;
55710;SDS011;41612;51.994;5.880;2024-02-04T07:59:06;26.58;;;14.55;;
55710;SDS011;41612;51.994;5.880;2024-02-04T08:01:32;17.52;;;12.15;;
55710;SDS011;41612;51.994;5.880;2024-02-04T08:04:00;13.15;;;10.10;;
55710;SDS011;41612;51.994;5.880;2024-02-04T08:06:27;33.03;;;14.63;;
55710;SDS011;41612;51.994;5.880;2024-02-04T08:08:53;28.55;;;14.52;;
55710;SDS011;41612;51.994;5.880;2024-02-04T08:11:20;20.85;;;11.48;;
55710;SDS011;41612;51.994;5.880;2024-02-04T08:13:46;19.48;;;11.85;;
55710;SDS011;41612;51.994;5.880;2024-02-04T08:16:17;17.40;;;9.10;;
55710;SDS011;41612;51.994;5.880;2024-02-04T08:18:49;17.50;;;9.00;;
55710;SDS011;41612;51.994;5.880;2024-02-04T08:21:18;13.05;;;8.02;;
55710;SDS011;41612;51.994;5.880;2024-02-04T08:23:48;16.00;;;7.60;;
55710;SDS011;41612;51.994;5.880;2024-02-04T08:26:14;16.10;;;7.38;;
55710;SDS011;41612;51.994;5.880;2024-02-04T08:28:40;15.10;;;8.75;;
55710;SDS011;41612;51.994;5.880;2024-02-04T08:31:09;11.35;;;5.95;;
55710;SDS011;41612;51.994;5.880;2024-02-04T08:33:38;12.27;;;6.53;;
55710;SDS011;41612;51.994;5.880;2024-02-04T08:36:06;11.55;;;7.30;;
55710;SDS011;41612;51.994;5.880;2024-02-04T08:38:35;10.63;;;7.53;;
55710;SDS011;41612;51.994;5.880;2024-02-04T08:41:07;15.10;;;8.60;;
55710;SDS011;41612;51.994;5.880;2024-02-04T08:43:40;18.73;;;9.77;;
55710;SDS011;41612;51.994;5.880;2024-02-04T08:46:07;15.23;;;8.57;;
55710;SDS011;41612;51.994;5.880;2024-02-04T08:48:35;13.75;;;9.07;;
55710;SDS011;41612;51.994;5.880;2024-02-04T08:51:01;17.70;;;9.15;;
55710;SDS011;41612;51.994;5.880;2024-02-04T08:53:27;15.70;;;8.65;;
55710;SDS011;41612;51.994;5.880;2024-02-04T08:55:53;19.45;;;8.48;;
55710;SDS011;41612;51.994;5.880;2024-02-04T08:58:21;13.98;;;7.30;;
55710;SDS011;41612;51.994;5.880;2024-02-04T09:00:50;13.10;;;6.65;;
55710;SDS011;41612;51.994;5.880;2024-02-04T09:03:16;13.88;;;7.80;;
55710;SDS011;41612;51.994;5.880;2024-02-04T09:05:44;15.30;;;7.15;;
55710;SDS011;41612;51.994;5.880;2024-02-04T09:08:11;12.18;;;7.65;;
55710;SDS011;41612;51.994;5.880;2024-02-04T09:10:37;16.30;;;7.03;;
55710;SDS011;41612;51.994;5.880;2024-02-04T09:13:03;11.40;;;6.50;;
55710;SDS011;41612;51.994;5.880;2024-02-04T09:15:36;12.10;;;7.43;;
55710;SDS011;41612;51.994;5.880;2024-02-04T09:18:04;13.63;;;7.45;;
55710;SDS011;41612;51.994;5.880;2024-02-04T09:20:30;15.85;;;7.65;;
55710;SDS011;41612;51.994;5.880;2024-02-04T09:22:56;15.75;;;8.75;;
55710;SDS011;41612;51.994;5.880;2024-02-04T09:25:21;15.27;;;9.35;;
55710;SDS011;41612;51.994;5.880;2024-02-04T09:27:50;13.07;;;8.35;;
55710;SDS011;41612;51.994;5.880;2024-02-04T09:30:18;15.73;;;9.07;;
55710;SDS011;41612;51.994;5.880;2024-02-04T09:32:51;21.98;;;9.68;;
55710;SDS011;41612;51.994;5.880;2024-02-04T09:35:17;17.10;;;8.40;;
55710;SDS011;41612;51.994;5.880;2024-02-04T09:37:43;7.95;;;6.47;;
55710;SDS011;41612;51.994;5.880;2024-02-04T09:40:11;13.05;;;8.60;;
55710;SDS011;41612;51.994;5.880;2024-02-04T09:42:40;12.32;;;6.63;;
55710;SDS011;41612;51.994;5.880;2024-02-04T09:45:06;15.52;;;8.55;;
55710;SDS011;41612;51.994;5.880;2024-02-04T09:47:32;15.52;;;10.23;;
55710;SDS011;41612;51.994;5.880;2024-02-04T09:50:02;14.45;;;7.85;;
55710;SDS011;41612;51.994;5.880;2024-02-04T09:52:29;16.58;;;8.05;;
55710;SDS011;41612;51.994;5.880;2024-02-04T09:55:01;12.25;;;8.13;;
55710;SDS011;41612;51.994;5.880;2024-02-04T09:57:29;7.40;;;5.15;;
55710;SDS011;41612;51.994;5.880;2024-02-04T09:59:59;12.10;;;7.75;;
55710;SDS011;41612;51.994;5.880;2024-02-04T10:02:25;13.43;;;7.13;;
55710;SDS011;41612;51.994;5.880;2024-02-04T10:05:00;15.35;;;7.70;;
55710;SDS011;41612;51.994;5.880;2024-02-04T10:07:29;12.52;;;6.22;;
55710;SDS011;41612;51.994;5.880;2024-02-04T10:09:58;11.48;;;5.88;;
55710;SDS011;41612;51.994;5.880;2024-02-04T10:12:23;11.45;;;5.63;;
55710;SDS011;41612;51.994;5.880;2024-02-04T10:14:52;14.60;;;5.85;;
55710;SDS011;41612;51.994;5.880;2024-02-04T10:17:18;12.55;;;6.18;;
55710;SDS011;41612;51.994;5.880;2024-02-04T10:19:47;11.20;;;5.53;;
55710;SDS011;41612;51.994;5.880;2024-02-04T10:22:19;10.90;;;4.88;;
55710;SDS011;41612;51.994;5.880;2024-02-04T10:24:45;8.35;;;5.47;;
55710;SDS011;41612;51.994;5.880;2024-02-04T10:27:13;7.18;;;4.32;;
55710;SDS011;41612;51.994;5.880;2024-02-04T10:29:40;8.38;;;4.55;;
55710;SDS011;41612;51.994;5.880;2024-02-04T10:32:09;8.32;;;4.45;;
55710;SDS011;41612;51.994;5.880;2024-02-04T10:34:38;10.23;;;5.68;;
55710;SDS011;41612;51.994;5.880;2024-02-04T10:37:04;6.90;;;4.10;;
55710;SDS011;41612;51.994;5.880;2024-02-04T10:39:31;8.50;;;4.53;;
55710;SDS011;41612;51.994;5.880;2024-02-04T10:42:00;13.38;;;4.53;;
55710;SDS011;41612;51.994;5.880;2024-02-04T10:44:29;8.55;;;4.68;;
55710;SDS011;41612;51.994;5.880;2024-02-04T10:47:00;7.18;;;4.18;;
55710;SDS011;41612;51.994;5.880;2024-02-04T10:49:30;8.02;;;3.63;;
55710;SDS011;41612;51.994;5.880;2024-02-04T10:51:59;6.45;;;2.85;;
55710;SDS011;41612;51.994;5.880;2024-02-04T10:54:27;5.22;;;3.33;;
55710;SDS011;41612;51.994;5.880;2024-02-04T10:56:55;5.38;;;3.72;;
55710;SDS011;41612;51.994;5.880;2024-02-04T10:59:24;10.50;;;3.70;;
55710;SDS011;41612;51.994;5.880;2024-02-04T11:01:54;6.00;;;2.92;;
55710;SDS011;41612;51.994;5.880;2024-02-04T11:04:21;7.72;;;2.97;;
55710;SDS011;41612;51.994;5.880;2024-02-04T11:06:48;4.82;;;2.55;;
55710;SDS011;41612;51.994;5.880;2024-02-04T11:09:15;7.25;;;2.47;;
55710;SDS011;41612;51.994;5.880;2024-02-04T11:11:42;4.95;;;2.42;;
55710;SDS011;41612;51.994;5.880;2024-02-04T11:14:11;7.72;;;2.90;;
55710;SDS011;41612;51.994;5.880;2024-02-04T11:27:32;5.13;;;2.15;;
55710;SDS011;41612;51.994;5.880;2024-02-04T11:29:58;6.60;;;2.25;;
55710;SDS011;41612;51.994;5.880;2024-02-04T11:32:29;4.55;;;2.03;;
55710;SDS011;41612;51.994;5.880;2024-02-04T11:34:56;4.63;;;2.13;;
55710;SDS011;41612;51.994;5.880;2024-02-04T11:37:26;4.95;;;1.85;;
55710;SDS011;41612;51.994;5.880;2024-02-04T11:39:53;3.58;;;1.60;;
55710;SDS011;41612;51.994;5.880;2024-02-04T11:42:31;3.78;;;2.25;;
55710;SDS011;41612;51.994;5.880;2024-02-04T11:45:07;3.97;;;1.75;;
55710;SDS011;41612;51.994;5.880;2024-02-04T11:47:36;3.53;;;1.77;;
55710;SDS011;41612;51.994;5.880;2024-02-04T11:50:04;4.13;;;1.75;;
55710;SDS011;41612;51.994;5.880;2024-02-04T11:52:30;3.00;;;2.25;;
55710;SDS011;41612;51.994;5.880;2024-02-04T11:55:01;4.85;;;2.80;;
55710;SDS011;41612;51.994;5.880;2024-02-04T11:57:30;2.55;;;1.30;;
55710;SDS011;41612;51.994;5.880;2024-02-04T11:59:57;3.38;;;1.92;;
55710;SDS011;41612;51.994;5.880;2024-02-04T12:02:23;5.22;;;2.15;;
55710;SDS011;41612;51.994;5.880;2024-02-04T12:04:52;4.90;;;2.00;;
55710;SDS011;41612;51.994;5.880;2024-02-04T12:07:18;4.95;;;2.08;;
55710;SDS011;41612;51.994;5.880;2024-02-04T12:09:47;4.65;;;2.45;;
55710;SDS011;41612;51.994;5.880;2024-02-04T12:12:14;4.20;;;2.70;;
55710;SDS011;41612;51.994;5.880;2024-02-04T12:14:40;6.63;;;3.13;;
55710;SDS011;41612;51.994;5.880;2024-02-04T12:17:10;7.00;;;3.70;;
55710;SDS011;41612;51.994;5.880;2024-02-04T12:19:42;4.65;;;3.17;;
55710;SDS011;41612;51.994;5.880;2024-02-04T12:22:12;6.63;;;3.90;;
55710;SDS011;41612;51.994;5.880;2024-02-04T12:24:42;7.43;;;4.03;;
55710;SDS011;41612;51.994;5.880;2024-02-04T12:27:08;7.75;;;3.65;;
55710;SDS011;41612;51.994;5.880;2024-02-04T12:29:37;10.93;;;5.68;;
55710;SDS011;41612;51.994;5.880;2024-02-04T12:32:03;8.48;;;5.18;;
55710;SDS011;41612;51.994;5.880;2024-02-04T12:34:30;8.50;;;4.72;;
55710;SDS011;41612;51.994;5.880;2024-02-04T12:37:02;10.15;;;5.40;;
55710;SDS011;41612;51.994;5.880;2024-02-04T12:39:29;6.82;;;4.20;;
55710;SDS011;41612;51.994;5.880;2024-02-04T12:42:04;10.73;;;7.03;;
55710;SDS011;41612;51.994;5.880;2024-02-04T12:44:32;14.10;;;6.70;;
55710;SDS011;41612;51.994;5.880;2024-02-04T12:47:04;8.65;;;4.88;;
55710;SDS011;41612;51.994;5.880;2024-02-04T12:49:30;14.25;;;6.28;;
55710;SDS011;41612;51.994;5.880;2024-02-04T12:52:03;9.65;;;5.88;;
55710;SDS011;41612;51.994;5.880;2024-02-04T12:54:43;8.43;;;6.00;;
55710;SDS011;41612;51.994;5.880;2024-02-04T12:57:23;17.08;;;6.88;;
55710;SDS011;41612;51.994;5.880;2024-02-04T12:59:50;15.60;;;6.15;;
55710;SDS011;41612;51.994;5.880;2024-02-04T13:02:15;10.93;;;6.97;;
55710;SDS011;41612;51.994;5.880;2024-02-04T13:04:41;13.73;;;6.25;;
55710;SDS011;41612;51.994;5.880;2024-02-04T13:07:13;14.43;;;7.03;;
55710;SDS011;41612;51.994;5.880;2024-02-04T13:09:42;19.10;;;7.03;;
55710;SDS011;41612;51.994;5.880;2024-02-04T13:12:10;6.50;;;4.30;;
55710;SDS011;41612;51.994;5.880;2024-02-04T13:14:41;13.52;;;6.50;;
55710;SDS011;41612;51.994;5.880;2024-02-04T13:17:10;6.03;;;3.95;;
55710;SDS011;41612;51.994;5.880;2024-02-04T13:19:38;14.02;;;5.75;;
55710;SDS011;41612;51.994;5.880;2024-02-04T13:22:08;8.57;;;4.05;;
55710;SDS011;41612;51.994;5.880;2024-02-04T13:24:39;15.82;;;6.03;;
55710;SDS011;41612;51.994;5.880;2024-02-04T13:27:05;11.00;;;6.15;;
55710;SDS011;41612;51.994;5.880;2024-02-04T13:29:36;13.43;;;5.97;;
55710;SDS011;41612;51.994;5.880;2024-02-04T13:32:05;10.13;;;5.57;;
55710;SDS011;41612;51.994;5.880;2024-02-04T13:34:30;6.78;;;4.75;;
55710;SDS011;41612;51.994;5.880;2024-02-04T13:36:56;10.98;;;4.95;;
55710;SDS011;41612;51.994;5.880;2024-02-04T13:39:23;12.95;;;5.35;;
55710;SDS011;41612;51.994;5.880;2024-02-04T13:41:53;9.10;;;5.57;;
55710;SDS011;41612;51.994;5.880;2024-02-04T13:44:19;8.95;;;4.93;;
55710;SDS011;41612;51.994;5.880;2024-02-04T13:46:47;9.70;;;6.18;;
55710;SDS011;41612;51.994;5.880;2024-02-04T13:49:13;12.90;;;5.13;;
55710;SDS011;41612;51.994;5.880;2024-02-04T13:51:38;11.45;;;6.07;;
55710;SDS011;41612;51.994;5.880;2024-02-04T13:54:10;6.97;;;4.60;;
55710;SDS011;41612;51.994;5.880;2024-02-04T13:56:43;12.77;;;6.97;;
55710;SDS011;41612;51.994;5.880;2024-02-04T13:59:12;12.98;;;7.30;;
55710;SDS011;41612;51.994;5.880;2024-02-04T14:01:43;13.88;;;6.80;;
55710;SDS011;41612;51.994;5.880;2024-02-04T14:04:09;14.98;;;7.45;;
55710;SDS011;41612;51.994;5.880;2024-02-04T14:06:39;14.73;;;6.88;;
55710;SDS011;41612;51.994;5.880;2024-02-04T14:09:05;15.98;;;6.85;;
55710;SDS011;41612;51.994;5.880;2024-02-04T14:11:31;14.57;;;6.63;;
55710;SDS011;41612;51.994;5.880;2024-02-04T14:14:00;14.23;;;6.40;;
55710;SDS011;41612;51.994;5.880;2024-02-04T14:16:29;17.52;;;7.85;;
55710;SDS011;41612;51.994;5.880;2024-02-04T14:18:54;9.68;;;5.65;;
55710;SDS011;41612;51.994;5.880;2024-02-04T14:21:20;13.20;;;6.28;;
55710;SDS011;41612;51.994;5.880;2024-02-04T14:23:46;17.52;;;7.50;;
55710;SDS011;41612;51.994;5.880;2024-02-04T14:26:19;12.52;;;5.63;;
55710;SDS011;41612;51.994;5.880;2024-02-04T14:28:45;13.23;;;7.45;;
55710;SDS011;41612;51.994;5.880;2024-02-04T14:31:14;8.60;;;5.43;;
55710;SDS011;41612;51.994;5.880;2024-02-04T14:33:40;8.88;;;4.60;;
55710;SDS011;41612;51.994;5.880;2024-02-04T14:36:07;14.65;;;7.65;;
55710;SDS011;41612;51.994;5.880;2024-02-04T14:38:35;11.55;;;6.65;;
55710;SDS011;41612;51.994;5.880;2024-02-04T14:41:09;12.98;;;7.05;;
55710;SDS011;41612;51.994;5.880;2024-02-04T14:43:35;17.67;;;9.23;;
55710;SDS011;41612;51.994;5.880;2024-02-04T14:46:01;20.02;;;9.43;;
55710;SDS011;41612;51.994;5.880;2024-02-04T14:48:31;23.52;;;8.95;;
55710;SDS011;41612;51.994;5.880;2024-02-04T14:50:57;20.23;;;7.50;;
55710;SDS011;41612;51.994;5.880;2024-02-04T14:53:23;19.77;;;8.13;;